Time;durP1;ratioP1;P1;durP2;ratioP2;P2;SDS_P1;SDS_P2;PMS_P1;PMS_P2;Temp;Humidity;BMP_temperature;BMP_pressure;BME280_temperature;BME280_humidity;BME280_pressure;Samples;Min_cycle;Max_cycle;Signal;HPM_P1;HPM_P2
2021/09/14 00:01:35;;;;;;;;;6.25;4.25;;;;;;;;2779713;51;8783;-66
2021/09/14 00:04:01;;;;;;;;;3.00;3.00;;;;;;;;2779567;51;8786;-65
2021/09/14 00:06:26;;;;;;;;;3.00;3.00;;;;;;;;2779237;51;8763;-66
2021/09/14 00:08:52;;;;;;;;;5.33;4.00;;;;;;;;2779391;51;8766;-65
2021/09/14 00:11:17;;;;;;;;;4.75;3.25;;;;;;;;2779428;51;8767;-66
2021/09/14 00:13:43;;;;;;;;;4.00;3.50;;;;;;;;2779195;51;8775;-67
2021/09/14 00:16:09;;;;;;;;;4.33;3.67;;;;;;;;2779220;51;8778;-67
2021/09/14 00:18:34;;;;;;;;;3.25;2.75;;;;;;;;2779522;51;8841;-66
2021/09/14 00:21:00;;;;;;;;;5.67;4.33;;;;;;;;2779306;51;9444;-66
2021/09/14 00:23:25;;;;;;;;;5.00;3.67;;;;;;;;2779342;51;8763;-67
2021/09/14 00:25:51;;;;;;;;;4.00;4.00;;;;;;;;2779079;51;8879;-67
2021/09/14 00:28:16;;;;;;;;;5.00;3.00;;;;;;;;2779312;51;8774;-67
2021/09/14 00:30:42;;;;;;;;;5.00;5.00;;;;;;;;2779410;51;8872;-67
2021/09/14 00:33:08;;;;;;;;;3.67;3.33;;;;;;;;2779442;51;8770;-66
2021/09/14 00:35:33;;;;;;;;;3.33;3.33;;;;;;;;2779115;51;8782;-66
2021/09/14 00:37:59;;;;;;;;;6.00;3.00;;;;;;;;2778778;51;8798;-66
2021/09/14 00:40:24;;;;;;;;;5.33;2.67;;;;;;;;2779535;51;8863;-67
2021/09/14 00:42:50;;;;;;;;;3.75;2.50;;;;;;;;2779500;51;8848;-67
2021/09/14 00:45:16;;;;;;;;;8.33;5.33;;;;;;;;2779102;51;8893;-68
2021/09/14 00:47:41;;;;;;;;;3.50;2.50;;;;;;;;2779195;51;8775;-67
2021/09/14 00:50:07;;;;;;;;;5.33;4.33;;;;;;;;2779042;51;8801;-67
2021/09/14 00:52:34;;;;;;;;;5.00;4.00;;;;;;;;2779112;51;8771;-68
2021/09/14 00:54:59;;;;;;;;;6.50;4.25;;;;;;;;2779178;51;8783;-66
2021/09/14 00:57:25;;;;;;;;;4.67;4.67;;;;;;;;2779250;51;8872;-68
2021/09/14 00:59:50;;;;;;;;;2.00;2.00;;;;;;;;2779079;51;8770;-68
2021/09/14 01:02:16;;;;;;;;;5.67;4.67;;;;;;;;2779478;51;8759;-68
2021/09/14 01:04:42;;;;;;;;;9.00;5.00;;;;;;;;2778983;51;8794;-67
2021/09/14 01:07:08;;;;;;;;;3.33;2.67;;;;;;;;2778757;51;8778;-67
2021/09/14 01:09:35;;;;;;;;;4.67;4.67;;;;;;;;2778957;51;8890;-66
2021/09/14 01:12:01;;;;;;;;;3.25;3.25;;;;;;;;2778967;51;8771;-66
2021/09/14 01:14:26;;;;;;;;;3.25;3.25;;;;;;;;2779034;51;8941;-67
2021/09/14 01:16:52;;;;;;;;;5.33;4.00;;;;;;;;2778908;51;8763;-67
2021/09/14 01:19:18;;;;;;;;;4.00;4.00;;;;;;;;2779184;51;8786;-67
2021/09/14 01:21:44;;;;;;;;;5.67;3.33;;;;;;;;2779035;51;8778;-67
2021/09/14 01:24:10;;;;;;;;;6.25;4.00;;;;;;;;2778695;51;8847;-67
2021/09/14 01:26:35;;;;;;;;;5.00;4.00;;;;;;;;2779025;51;8851;-66
2021/09/14 01:29:11;;;;;;;;;3.33;3.33;;;;;;;;2778931;51;8774;-67
2021/09/14 01:31:38;;;;;;;;;6.75;3.50;;;;;;;;2779342;51;8837;-67
2021/09/14 01:34:03;;;;;;;;;4.00;4.00;;;;;;;;2778773;51;8889;-66
2021/09/14 01:36:29;;;;;;;;;5.00;4.00;;;;;;;;2778842;51;8766;-66
2021/09/14 01:38:55;;;;;;;;;5.00;4.25;;;;;;;;2779423;51;8762;-67
2021/09/14 01:41:21;;;;;;;;;8.00;5.00;;;;;;;;2778850;51;8782;-67
2021/09/14 01:43:47;;;;;;;;;6.00;3.00;;;;;;;;2778744;51;8885;-66
2021/09/14 01:46:12;;;;;;;;;6.25;3.50;;;;;;;;2778893;51;9419;-67
2021/09/14 01:48:38;;;;;;;;;4.33;4.33;;;;;;;;2779078;51;8787;-66
2021/09/14 01:51:04;;;;;;;;;3.00;3.00;;;;;;;;2778860;51;10504;-67
2021/09/14 01:53:30;;;;;;;;;4.67;4.00;;;;;;;;2778801;51;8794;-65
2021/09/14 01:56:00;;;;;;;;;6.00;3.33;;;;;;;;2778790;51;9533;-67
2021/09/14 01:58:26;;;;;;;;;4.00;4.00;;;;;;;;2778920;51;8792;-67
2021/09/14 02:38:26;;;;;;;;;4.50;4.00;;;;;;;;2779715;51;8771;-65
2021/09/14 02:43:56;;;;;;;;;6.00;4.00;;;;;;;;2779702;51;8851;-66
2021/09/14 03:00:09;;;;;;;;;2.50;2.50;;;;;;;;2779558;51;8887;-67
2021/09/14 03:02:35;;;;;;;;;7.00;4.50;;;;;;;;2779825;51;8943;-68
2021/09/14 03:05:03;;;;;;;;;6.33;5.00;;;;;;;;2779744;51;9477;-67
2021/09/14 03:07:29;;;;;;;;;5.75;5.75;;;;;;;;2779946;51;11458;-67
2021/09/14 03:09:55;;;;;;;;;9.00;5.00;;;;;;;;2779418;51;8765;-65
2021/09/14 03:12:20;;;;;;;;;4.00;4.00;;;;;;;;2779383;51;8785;-67
2021/09/14 03:14:48;;;;;;;;;9.00;5.00;;;;;;;;2779564;51;8795;-66
2021/09/14 03:17:14;;;;;;;;;11.25;5.75;;;;;;;;2779806;51;8869;-66
2021/09/14 03:19:39;;;;;;;;;7.00;4.67;;;;;;;;2779688;51;8786;-69
2021/09/14 03:22:05;;;;;;;;;7.00;7.00;;;;;;;;2779694;51;8778;-67
2021/09/14 03:24:30;;;;;;;;;9.33;5.00;;;;;;;;2779664;51;8763;-69
2021/09/14 03:26:58;;;;;;;;;6.33;3.67;;;;;;;;2779412;51;8778;-67
2021/09/14 03:29:24;;;;;;;;;8.25;3.50;;;;;;;;2779692;51;8778;-66
2021/09/14 03:31:50;;;;;;;;;7.00;5.75;;;;;;;;2779438;51;8780;-67
2021/09/14 03:34:15;;;;;;;;;10.00;7.00;;;;;;;;2779304;51;8766;-67
2021/09/14 03:36:41;;;;;;;;;7.67;6.00;;;;;;;;2779417;51;8766;-67
2021/09/14 03:39:07;;;;;;;;;4.67;4.00;;;;;;;;2779724;51;8777;-66
2021/09/14 03:41:32;;;;;;;;;4.67;4.00;;;;;;;;2779231;51;8767;-68
2021/09/14 03:43:58;;;;;;;;;6.33;4.67;;;;;;;;2779600;51;8758;-68
2021/09/14 03:46:23;;;;;;;;;5.33;4.33;;;;;;;;2779292;51;9452;-65
2021/09/14 03:48:49;;;;;;;;;8.00;7.00;;;;;;;;2779582;51;9444;-66
2021/09/14 03:51:15;;;;;;;;;4.67;4.00;;;;;;;;2779252;51;9433;-67
2021/09/14 03:53:41;;;;;;;;;5.00;4.00;;;;;;;;2779578;51;8810;-66
2021/09/14 03:56:07;;;;;;;;;6.50;4.50;;;;;;;;2779237;51;8813;-68
2021/09/14 03:58:32;;;;;;;;;6.33;4.00;;;;;;;;2779146;51;8771;-70
2021/09/14 04:00:58;;;;;;;;;5.00;5.00;;;;;;;;2779204;51;8763;-67
2021/09/14 04:03:50;;;;;;;;;3.33;3.33;;;;;;;;2779168;51;8783;-67
2021/09/14 04:08:54;;;;;;;;;6.50;4.00;;;;;;;;2779370;51;8869;-67
2021/09/14 04:11:21;;;;;;;;;5.00;4.00;;;;;;;;2779234;51;8808;-68
2021/09/14 04:13:51;;;;;;;;;3.75;3.75;;;;;;;;2779179;51;8778;-69
2021/09/14 04:16:17;;;;;;;;;5.75;4.00;;;;;;;;2779327;51;9226;-68
2021/09/14 04:18:43;;;;;;;;;5.50;3.50;;;;;;;;2779510;51;8789;-67
2021/09/14 04:21:08;;;;;;;;;9.00;5.67;;;;;;;;2779265;51;8751;-67
2021/09/14 04:23:34;;;;;;;;;7.67;4.67;;;;;;;;2779052;51;8766;-66
2021/09/14 04:25:59;;;;;;;;;3.67;3.67;;;;;;;;2779091;51;8803;-66
2021/09/14 04:28:25;;;;;;;;;4.33;4.33;;;;;;;;2779138;51;9530;-69
2021/09/14 04:30:51;;;;;;;;;9.00;8.67;;;;;;;;2779033;51;8795;-66
2021/09/14 04:33:16;;;;;;;;;11.67;8.67;;;;;;;;2779404;51;9374;-67
2021/09/14 04:35:42;;;;;;;;;8.00;6.67;;;;;;;;2779081;51;8813;-66
2021/09/14 04:38:08;;;;;;;;;7.67;4.33;;;;;;;;2779163;51;8767;-68
2021/09/14 04:40:34;;;;;;;;;9.75;8.75;;;;;;;;2778889;51;8770;-67
2021/09/14 04:42:59;;;;;;;;;11.33;9.33;;;;;;;;2779193;51;8858;-66
2021/09/14 04:45:25;;;;;;;;;9.33;7.33;;;;;;;;2779346;51;8799;-68
2021/09/14 04:47:50;;;;;;;;;12.67;8.33;;;;;;;;2778966;51;8881;-68
2021/09/14 04:50:16;;;;;;;;;13.67;9.33;;;;;;;;2779046;51;8770;-65
2021/09/14 04:52:41;;;;;;;;;8.50;7.25;;;;;;;;2779101;51;8766;-66
2021/09/14 04:55:07;;;;;;;;;7.75;7.75;;;;;;;;2779252;51;8864;-69
2021/09/14 04:57:33;;;;;;;;;12.25;9.75;;;;;;;;2779180;51;8775;-67
2021/09/14 04:59:59;;;;;;;;;10.25;8.25;;;;;;;;2779214;51;11449;-68
2021/09/14 05:02:24;;;;;;;;;9.75;8.50;;;;;;;;2779023;51;8763;-65
2021/09/14 05:04:50;;;;;;;;;7.00;6.50;;;;;;;;2779087;51;11451;-68
2021/09/14 05:07:16;;;;;;;;;10.00;9.50;;;;;;;;2779148;51;8762;-66
2021/09/14 05:09:42;;;;;;;;;10.25;9.00;;;;;;;;2779018;51;8782;-67
2021/09/14 05:12:07;;;;;;;;;9.50;7.00;;;;;;;;2779211;51;8778;-68
2021/09/14 05:14:33;;;;;;;;;9.00;9.00;;;;;;;;2779079;51;10771;-67
2021/09/14 05:16:59;;;;;;;;;6.75;6.75;;;;;;;;2778932;51;8759;-66
2021/09/14 05:19:32;;;;;;;;;9.60;8.20;;;;;;;;2779068;51;8774;-67
2021/09/14 05:21:59;;;;;;;;;7.60;6.40;;;;;;;;2779392;51;8758;-67
2021/09/14 05:24:25;;;;;;;;;8.40;8.20;;;;;;;;2779202;51;8779;-67
2021/09/14 05:26:51;;;;;;;;;4.80;2.40;;;;;;;;2778824;51;8763;-67
2021/09/14 05:29:16;;;;;;;;;8.00;8.00;;;;;;;;2779040;51;8904;-68
2021/09/14 05:31:42;;;;;;;;;10.50;8.25;;;;;;;;2779315;51;8961;-67
2021/09/14 05:34:08;;;;;;;;;11.75;8.75;;;;;;;;2779263;51;8763;-66
2021/09/14 05:36:33;;;;;;;;;15.50;11.75;;;;;;;;2778781;51;8786;-66
2021/09/14 05:38:59;;;;;;;;;11.00;8.00;;;;;;;;2779068;51;9416;-68
2021/09/14 05:41:24;;;;;;;;;10.75;8.25;;;;;;;;2778857;51;8774;-67
2021/09/14 05:43:50;;;;;;;;;11.50;9.75;;;;;;;;2778463;51;8770;-67
2021/09/14 05:46:16;;;;;;;;;9.50;8.50;;;;;;;;2778768;51;8770;-67
2021/09/14 05:48:41;;;;;;;;;7.00;7.00;;;;;;;;2778763;51;8762;-67
2021/09/14 05:51:07;;;;;;;;;8.00;6.00;;;;;;;;2779089;51;9443;-67
2021/09/14 05:53:34;;;;;;;;;10.75;7.00;;;;;;;;2779240;51;8778;-67
2021/09/14 05:56:00;;;;;;;;;5.60;5.40;;;;;;;;2779704;51;8798;-67
2021/09/14 05:58:25;;;;;;;;;4.50;4.25;;;;;;;;2779822;51;8771;-67
2021/09/14 06:00:51;;;;;;;;;6.50;5.00;;;;;;;;2779753;51;9415;-67
2021/09/14 06:03:17;;;;;;;;;5.25;4.75;;;;;;;;2779676;51;8867;-67
2021/09/14 06:05:42;;;;;;;;;5.50;5.50;;;;;;;;2779718;51;9468;-67
2021/09/14 06:08:08;;;;;;;;;4.75;4.75;;;;;;;;2779815;51;8856;-68
2021/09/14 06:10:34;;;;;;;;;3.75;3.75;;;;;;;;2779990;51;8759;-68
2021/09/14 06:12:59;;;;;;;;;4.00;3.00;;;;;;;;2780017;51;8959;-68
2021/09/14 06:15:25;;;;;;;;;4.50;3.00;;;;;;;;2779673;51;8794;-67
2021/09/14 06:17:51;;;;;;;;;4.50;4.00;;;;;;;;2779657;51;8966;-66
2021/09/14 06:20:16;;;;;;;;;7.25;6.00;;;;;;;;2780053;51;8766;-67
2021/09/14 06:22:42;;;;;;;;;7.50;7.00;;;;;;;;2779870;51;8865;-67
2021/09/14 06:25:08;;;;;;;;;4.50;4.50;;;;;;;;2779522;51;8788;-68
2021/09/14 06:27:33;;;;;;;;;5.80;4.20;;;;;;;;2779507;51;8925;-67
2021/09/14 06:29:59;;;;;;;;;7.00;5.00;;;;;;;;2779662;51;8759;-69
2021/09/14 06:32:25;;;;;;;;;4.25;3.75;;;;;;;;2779693;51;8751;-67
2021/09/14 06:34:51;;;;;;;;;3.60;2.60;;;;;;;;2779757;51;8922;-67
2021/09/14 06:37:16;;;;;;;;;6.00;4.25;;;;;;;;2780001;51;8887;-66
2021/09/14 06:39:42;;;;;;;;;5.00;5.00;;;;;;;;2780228;51;8798;-67
2021/09/14 06:42:08;;;;;;;;;6.75;5.75;;;;;;;;2779976;51;8766;-67
2021/09/14 06:44:33;;;;;;;;;5.75;5.50;;;;;;;;2779698;51;9414;-68
2021/09/14 06:46:59;;;;;;;;;5.00;5.00;;;;;;;;2779569;51;8758;-67
2021/09/14 06:49:29;;;;;;;;;3.80;3.40;;;;;;;;2779961;51;8789;-68
2021/09/14 06:51:56;;;;;;;;;3.60;3.60;;;;;;;;2779772;51;8767;-67
2021/09/14 06:54:22;;;;;;;;;3.00;3.00;;;;;;;;2779853;51;9327;-67
2021/09/14 06:56:47;;;;;;;;;5.40;4.00;;;;;;;;2779371;51;8785;-68
2021/09/14 06:59:13;;;;;;;;;5.25;4.00;;;;;;;;2779385;51;8781;-68
2021/09/14 07:01:38;;;;;;;;;5.25;4.50;;;;;;;;2779846;51;8783;-67
2021/09/14 07:04:04;;;;;;;;;3.75;3.00;;;;;;;;2779437;51;8785;-68
2021/09/14 07:06:29;;;;;;;;;3.00;3.00;;;;;;;;2779870;51;8759;-69
2021/09/14 07:08:55;;;;;;;;;1.75;1.75;;;;;;;;2779406;51;8781;-67
2021/09/14 07:11:21;;;;;;;;;4.00;4.00;;;;;;;;2779405;51;8754;-66
2021/09/14 07:13:46;;;;;;;;;5.00;5.00;;;;;;;;2779356;51;8920;-69
2021/09/14 07:16:13;;;;;;;;;3.00;3.00;;;;;;;;2779565;51;8801;-67
2021/09/14 07:18:41;;;;;;;;;3.60;3.60;;;;;;;;2779494;51;9373;-68
2021/09/14 07:21:07;;;;;;;;;3.75;3.75;;;;;;;;2779619;51;8754;-68
2021/09/14 07:23:33;;;;;;;;;3.33;3.33;;;;;;;;2779570;51;8789;-66
2021/09/14 07:25:58;;;;;;;;;4.25;3.50;;;;;;;;2779366;51;8747;-67
2021/09/14 07:28:24;;;;;;;;;4.00;3.33;;;;;;;;2779817;51;8758;-69
2021/09/14 07:30:50;;;;;;;;;4.33;3.67;;;;;;;;2779509;51;8759;-69
2021/09/14 07:33:16;;;;;;;;;5.00;5.00;;;;;;;;2779416;51;8767;-69
2021/09/14 07:35:42;;;;;;;;;3.75;3.75;;;;;;;;2778793;51;8790;-69
2021/09/14 07:38:08;;;;;;;;;2.00;2.00;;;;;;;;2779479;51;8876;-70
2021/09/14 07:40:34;;;;;;;;;3.25;1.50;;;;;;;;2779280;51;8758;-70
2021/09/14 07:42:59;;;;;;;;;3.00;3.00;;;;;;;;2779547;51;8786;-68
2021/09/14 07:45:25;;;;;;;;;2.33;1.00;;;;;;;;2779689;51;8835;-70
2021/09/14 07:47:51;;;;;;;;;2.00;2.00;;;;;;;;2779671;51;8766;-67
2021/09/14 07:50:16;;;;;;;;;3.00;2.33;;;;;;;;2779345;51;9464;-69
2021/09/14 07:52:42;;;;;;;;;2.00;2.00;;;;;;;;2779440;51;9287;-68
2021/09/14 07:55:08;;;;;;;;;2.00;2.00;;;;;;;;2779409;51;8901;-68
2021/09/14 07:57:34;;;;;;;;;3.25;2.00;;;;;;;;2779499;51;8775;-69
2021/09/14 07:59:59;;;;;;;;;1.67;1.67;;;;;;;;2779254;51;8782;-68
2021/09/14 08:02:25;;;;;;;;;2.00;2.00;;;;;;;;2779025;51;8759;-69
2021/09/14 08:04:51;;;;;;;;;2.00;2.00;;;;;;;;2778841;51;8879;-69
2021/09/14 08:07:16;;;;;;;;;4.33;3.00;;;;;;;;2779370;51;8778;-69
2021/09/14 08:09:42;;;;;;;;;2.00;2.00;;;;;;;;2779211;51;8774;-69
2021/09/14 08:12:08;;;;;;;;;3.00;2.00;;;;;;;;2779282;51;8871;-69
2021/09/14 08:14:33;;;;;;;;;2.67;2.00;;;;;;;;2776982;51;8774;-70
2021/09/14 08:16:59;;;;;;;;;1.67;1.67;;;;;;;;2774837;51;8794;-69
2021/09/14 08:19:25;;;;;;;;;2.00;2.00;;;;;;;;2776348;51;8785;-67
2021/09/14 08:21:50;;;;;;;;;1.67;1.33;;;;;;;;2770616;51;9264;-69
2021/09/14 08:24:16;;;;;;;;;1.00;1.00;;;;;;;;2772617;51;11479;-73
2021/09/14 08:26:42;;;;;;;;;1.00;1.00;;;;;;;;2773411;51;8786;-69
2021/09/14 08:29:08;;;;;;;;;1.25;1.25;;;;;;;;2773516;51;8759;-69
2021/09/14 08:31:33;;;;;;;;;3.33;2.00;;;;;;;;2771837;51;8777;-69
2021/09/14 08:33:59;;;;;;;;;1.67;1.00;;;;;;;;2767137;51;8750;-69
2021/09/14 08:36:25;;;;;;;;;1.33;1.33;;;;;;;;2766010;51;9852;-71
2021/09/14 08:38:51;;;;;;;;;2.25;2.25;;;;;;;;2767156;51;8793;-68
2021/09/14 08:41:17;;;;;;;;;2.00;2.00;;;;;;;;2766137;51;10192;-66
2021/09/14 08:43:44;;;;;;;;;1.33;1.33;;;;;;;;2767279;51;8757;-71
2021/09/14 08:46:10;;;;;;;;;1.00;1.00;;;;;;;;2767337;51;8758;-71
2021/09/14 08:48:38;;;;;;;;;4.25;3.50;;;;;;;;2768109;51;8873;-70
2021/09/14 08:51:05;;;;;;;;;4.00;3.00;;;;;;;;2772998;51;8769;-70
2021/09/14 08:53:31;;;;;;;;;1.25;1.25;;;;;;;;2773055;51;8779;-70
2021/09/14 08:55:58;;;;;;;;;1.00;1.00;;;;;;;;2773081;51;8810;-70
2021/09/14 08:58:23;;;;;;;;;4.00;4.00;;;;;;;;2773181;51;8770;-69
2021/09/14 09:00:51;;;;;;;;;4.50;3.75;;;;;;;;2775416;51;9505;-72
2021/09/14 09:03:24;;;;;;;;;0.20;0.20;;;;;;;;2779097;51;8772;-68
2021/09/14 09:05:50;;;;;;;;;2.40;2.40;;;;;;;;2779245;51;8768;-68
2021/09/14 09:08:35;;;;;;;;;3.00;3.00;;;;;;;;2778794;51;8760;-70
2021/09/14 09:11:04;;;;;;;;;3.25;3.25;;;;;;;;2779268;51;9208;-69
2021/09/14 09:13:33;;;;;;;;;4.80;2.60;;;;;;;;2779274;51;8768;-70
2021/09/14 09:16:00;;;;;;;;;4.00;3.00;;;;;;;;2778846;51;8808;-71
2021/09/14 09:18:26;;;;;;;;;4.80;3.80;;;;;;;;2778872;51;8802;-72
2021/09/14 09:20:59;;;;;;;;;3.80;3.80;;;;;;;;2778816;51;8824;-72
2021/09/14 09:23:25;;;;;;;;;6.00;5.00;;;;;;;;2776200;51;8885;-71
2021/09/14 09:25:51;;;;;;;;;4.60;3.00;;;;;;;;2773248;51;8767;-69
2021/09/14 09:28:21;;;;;;;;;4.00;4.00;;;;;;;;2773536;51;8852;-67
2021/09/14 09:30:58;;;;;;;;;2.00;1.20;;;;;;;;2773696;51;8871;-69
2021/09/14 09:33:27;;;;;;;;;3.00;3.00;;;;;;;;2774275;51;8763;-67
2021/09/14 09:36:00;;;;;;;;;4.00;3.00;;;;;;;;2773832;51;9472;-68
2021/09/14 09:38:27;;;;;;;;;3.80;3.20;;;;;;;;2774121;51;8766;-68
2021/09/14 09:40:52;;;;;;;;;4.00;4.00;;;;;;;;2774588;51;8763;-68
2021/09/14 09:43:26;;;;;;;;;5.75;5.75;;;;;;;;2774454;51;9450;-70
2021/09/14 09:45:52;;;;;;;;;6.60;6.60;;;;;;;;2773820;51;8799;-67
2021/09/14 09:48:17;;;;;;;;;4.25;4.25;;;;;;;;2773832;51;8763;-67
2021/09/14 09:50:43;;;;;;;;;5.00;3.00;;;;;;;;2773708;51;8770;-69
2021/09/14 09:53:10;;;;;;;;;4.00;4.00;;;;;;;;2774073;51;8758;-71
2021/09/14 09:55:36;;;;;;;;;8.20;8.20;;;;;;;;2773652;51;8799;-71
2021/09/14 09:58:05;;;;;;;;;5.00;5.00;;;;;;;;2773774;51;9030;-69
2021/09/14 10:00:37;;;;;;;;;3.60;3.60;;;;;;;;2773866;51;8789;-68
2021/09/14 10:03:06;;;;;;;;;6.00;6.00;;;;;;;;2773955;51;8767;-69
2021/09/14 10:05:33;;;;;;;;;5.00;5.00;;;;;;;;2773939;51;8779;-69
2021/09/14 10:08:05;;;;;;;;;6.20;6.20;;;;;;;;2774010;51;9404;-68
2021/09/14 10:10:34;;;;;;;;;5.00;5.00;;;;;;;;2773729;51;8795;-67
2021/09/14 10:13:10;;;;;;;;;6.20;6.00;;;;;;;;2773819;51;8771;-68
2021/09/14 10:15:43;;;;;;;;;7.20;7.20;;;;;;;;2773470;51;8802;-67
2021/09/14 10:18:10;;;;;;;;;11.20;11.20;;;;;;;;2773697;51;8795;-68
2021/09/14 10:20:40;;;;;;;;;6.60;5.60;;;;;;;;2773413;51;8918;-69
2021/09/14 10:23:07;;;;;;;;;5.20;5.20;;;;;;;;2775893;51;8894;-69
2021/09/14 10:25:33;;;;;;;;;8.00;7.40;;;;;;;;2779632;51;8796;-67
2021/09/14 10:28:07;;;;;;;;;8.20;8.20;;;;;;;;2779551;51;8860;-68
2021/09/14 10:30:34;;;;;;;;;7.80;7.80;;;;;;;;2779799;51;8764;-67
2021/09/14 10:33:00;;;;;;;;;4.00;4.00;;;;;;;;2779714;51;8982;-68
2021/09/14 10:35:27;;;;;;;;;8.00;8.00;;;;;;;;2780053;51;8779;-68
2021/09/14 10:38:03;;;;;;;;;8.80;8.80;;;;;;;;2779469;51;8764;-70
2021/09/14 10:40:36;;;;;;;;;9.75;9.75;;;;;;;;2779487;51;8775;-68
2021/09/14 10:43:01;;;;;;;;;13.00;13.00;;;;;;;;2779613;51;8764;-68
2021/09/14 10:45:27;;;;;;;;;12.00;12.00;;;;;;;;2779543;51;8807;-71
2021/09/14 10:47:53;;;;;;;;;6.33;6.33;;;;;;;;2780061;51;8779;-68
2021/09/14 10:50:26;;;;;;;;;17.00;17.00;;;;;;;;2779725;51;8776;-67
2021/09/14 10:52:59;;;;;;;;;15.33;14.33;;;;;;;;2779300;51;11451;-68
2021/09/14 10:55:25;;;;;;;;;15.25;15.25;;;;;;;;2779493;51;9253;-67
2021/09/14 10:57:56;;;;;;;;;10.00;9.67;;;;;;;;2779726;51;8776;-68
2021/09/14 11:00:34;;;;;;;;;10.25;10.25;;;;;;;;2780103;51;9218;-69
2021/09/14 11:03:00;;;;;;;;;8.25;8.25;;;;;;;;2779471;51;8849;-69
2021/09/14 11:05:27;;;;;;;;;10.67;10.67;;;;;;;;2779385;51;8784;-68
2021/09/14 11:07:58;;;;;;;;;11.50;11.50;;;;;;;;2779428;51;8826;-69
2021/09/14 11:10:24;;;;;;;;;8.50;8.50;;;;;;;;2780041;51;9390;-69
2021/09/14 11:12:50;;;;;;;;;12.33;12.33;;;;;;;;2779994;51;8837;-69
2021/09/14 11:15:15;;;;;;;;;11.00;11.00;;;;;;;;2779776;51;8784;-68
2021/09/14 11:17:41;;;;;;;;;8.00;8.00;;;;;;;;2778593;51;9543;-68
2021/09/14 11:20:09;;;;;;;;;10.33;10.33;;;;;;;;2778803;51;9840;-68
2021/09/14 11:22:35;;;;;;;;;18.50;18.50;;;;;;;;2778476;51;8770;-69
2021/09/14 11:25:01;;;;;;;;;10.75;10.75;;;;;;;;2768869;51;9899;-68
2021/09/14 11:27:27;;;;;;;;;11.67;11.67;;;;;;;;2767368;51;9903;-69
2021/09/14 11:29:54;;;;;;;;;14.33;14.33;;;;;;;;2767394;51;8769;-68
2021/09/14 11:32:20;;;;;;;;;10.25;10.25;;;;;;;;2767482;51;8768;-68
2021/09/14 11:34:47;;;;;;;;;10.33;10.33;;;;;;;;2767512;51;8770;-67
2021/09/14 11:37:14;;;;;;;;;9.25;9.00;;;;;;;;2766763;51;9974;-67
2021/09/14 11:39:39;;;;;;;;;10.75;10.75;;;;;;;;2766650;51;9781;-69
2021/09/14 11:42:09;;;;;;;;;10.33;10.33;;;;;;;;2767391;51;8778;-68
2021/09/14 11:44:35;;;;;;;;;12.25;12.25;;;;;;;;2767280;51;8778;-70
2021/09/14 11:47:08;;;;;;;;;11.00;11.00;;;;;;;;2767660;51;8786;-68
2021/09/14 11:49:34;;;;;;;;;10.80;10.80;;;;;;;;2767350;51;8895;-68
2021/09/14 11:52:00;;;;;;;;;7.75;7.75;;;;;;;;2767398;51;8778;-69
2021/09/14 11:54:31;;;;;;;;;9.20;9.20;;;;;;;;2767052;51;8805;-68
2021/09/14 11:56:57;;;;;;;;;11.40;11.40;;;;;;;;2767555;51;8794;-67
2021/09/14 11:59:22;;;;;;;;;6.00;6.00;;;;;;;;2767299;51;8769;-68
2021/09/14 12:01:48;;;;;;;;;11.67;11.67;;;;;;;;2767367;51;8777;-68
2021/09/14 12:04:18;;;;;;;;;8.67;8.67;;;;;;;;2767490;51;8777;-67
2021/09/14 12:06:54;;;;;;;;;16.50;16.50;;;;;;;;2767054;51;8898;-67
2021/09/14 12:09:20;;;;;;;;;10.50;10.50;;;;;;;;2767517;51;8777;-67
2021/09/14 12:11:46;;;;;;;;;11.75;11.75;;;;;;;;2767610;51;8761;-68
2021/09/14 12:14:19;;;;;;;;;6.60;6.00;;;;;;;;2767619;51;8773;-69
2021/09/14 12:16:45;;;;;;;;;10.00;10.00;;;;;;;;2767263;51;8762;-68
2021/09/14 12:19:13;;;;;;;;;6.50;6.50;;;;;;;;2767577;51;8758;-68
2021/09/14 12:21:39;;;;;;;;;7.60;7.60;;;;;;;;2767227;51;8918;-69
2021/09/14 12:24:04;;;;;;;;;8.00;7.00;;;;;;;;2771583;51;8751;-67
2021/09/14 12:26:37;;;;;;;;;4.00;4.00;;;;;;;;2773116;51;8799;-67
2021/09/14 12:29:03;;;;;;;;;6.60;6.60;;;;;;;;2773473;51;8775;-69
2021/09/14 12:31:28;;;;;;;;;7.50;6.75;;;;;;;;2773178;51;8775;-67
2021/09/14 12:33:54;;;;;;;;;4.50;4.50;;;;;;;;2773800;51;8803;-69
2021/09/14 12:36:19;;;;;;;;;7.00;6.50;;;;;;;;2773349;51;8787;-70
2021/09/14 12:38:45;;;;;;;;;3.00;3.00;;;;;;;;2773322;51;8767;-70
2021/09/14 12:41:13;;;;;;;;;3.50;3.50;;;;;;;;2773458;51;8759;-68
2021/09/14 12:43:39;;;;;;;;;3.20;3.20;;;;;;;;2773496;51;8856;-68
2021/09/14 12:46:05;;;;;;;;;2.00;2.00;;;;;;;;2773252;51;8807;-68
2021/09/14 12:48:30;;;;;;;;;1.00;1.00;;;;;;;;2773235;51;8782;-66
2021/09/14 12:50:56;;;;;;;;;2.00;2.00;;;;;;;;2773140;51;8771;-68
2021/09/14 12:53:22;;;;;;;;;3.00;3.00;;;;;;;;2773398;51;8916;-67
2021/09/14 12:55:48;;;;;;;;;2.50;2.50;;;;;;;;2773038;51;8763;-68
2021/09/14 12:58:13;;;;;;;;;2.00;1.20;;;;;;;;2773531;51;8796;-67
2021/09/14 13:00:39;;;;;;;;;3.00;3.00;;;;;;;;2773214;51;8747;-69
2021/09/14 13:03:05;;;;;;;;;2.00;1.75;;;;;;;;2773423;51;8758;-67
2021/09/14 13:05:33;;;;;;;;;3.00;3.00;;;;;;;;2773159;51;8811;-68
2021/09/14 13:07:58;;;;;;;;;4.60;4.40;;;;;;;;2772986;51;8763;-67
2021/09/14 13:10:24;;;;;;;;;3.75;3.00;;;;;;;;2773009;51;8770;-66
2021/09/14 13:16:10;;;;;;;;;1.00;1.00;;;;;;;;2773146;51;8759;-68
2021/09/14 13:18:20;;;;;;;;;2.00;2.00;;;;;;;;2773030;51;8759;-69
2021/09/14 13:20:46;;;;;;;;;1.75;1.75;;;;;;;;2773204;51;8817;-69
2021/09/14 13:23:11;;;;;;;;;1.50;1.50;;;;;;;;2771008;51;8896;-67
2021/09/14 13:25:37;;;;;;;;;2.00;1.50;;;;;;;;2766749;51;8911;-68
2021/09/14 13:28:03;;;;;;;;;2.50;2.50;;;;;;;;2766870;51;8854;-66
2021/09/14 13:30:28;;;;;;;;;1.25;1.25;;;;;;;;2767145;51;8765;-66
2021/09/14 13:32:54;;;;;;;;;2.00;2.00;;;;;;;;2766906;51;8769;-69
2021/09/14 13:35:19;;;;;;;;;4.00;3.00;;;;;;;;2767028;51;8789;-69
2021/09/14 13:37:45;;;;;;;;;1.50;1.50;;;;;;;;2767110;51;8778;-69
2021/09/14 13:40:11;;;;;;;;;1.00;1.00;;;;;;;;2767247;51;8769;-68
2021/09/14 13:42:36;;;;;;;;;0.00;0.00;;;;;;;;2767239;51;9468;-69
2021/09/14 13:47:28;;;;;;;;;1.00;1.00;;;;;;;;2767059;51;8967;-68
2021/09/14 13:49:54;;;;;;;;;2.00;1.00;;;;;;;;2767048;51;8790;-67
2021/09/14 13:52:20;;;;;;;;;2.00;2.00;;;;;;;;2766927;51;9438;-67
2021/09/14 13:54:45;;;;;;;;;0.00;0.00;;;;;;;;2767234;51;8777;-67
2021/09/14 13:57:11;;;;;;;;;2.00;2.00;;;;;;;;2766925;51;8789;-68
2021/09/14 13:59:36;;;;;;;;;1.33;0.33;;;;;;;;2766659;51;8792;-68
2021/09/14 14:02:02;;;;;;;;;1.33;1.33;;;;;;;;2766823;51;8761;-67
2021/09/14 14:04:28;;;;;;;;;0.00;0.00;;;;;;;;2766632;51;8860;-67
2021/09/14 14:06:53;;;;;;;;;1.00;1.00;;;;;;;;2766599;51;8828;-69
2021/09/14 14:09:19;;;;;;;;;0.33;0.33;;;;;;;;2766513;51;11423;-67
2021/09/14 14:11:45;;;;;;;;;1.00;1.00;;;;;;;;2766377;51;8797;-68
2021/09/14 14:14:11;;;;;;;;;0.25;0.25;;;;;;;;2767266;51;8870;-67
2021/09/14 14:16:44;;;;;;;;;0.00;0.00;;;;;;;;2768046;51;9573;-69
2021/09/14 14:19:09;;;;;;;;;1.00;1.00;;;;;;;;2766837;51;8789;-67
2021/09/14 14:21:35;;;;;;;;;0.33;0.33;;;;;;;;2767731;51;8786;-69
2021/09/14 14:24:00;;;;;;;;;1.00;1.00;;;;;;;;2771814;51;8903;-69
2021/09/14 14:26:26;;;;;;;;;0.67;0.67;;;;;;;;2773674;51;8913;-68
2021/09/14 14:28:52;;;;;;;;;0.00;0.00;;;;;;;;2773508;51;8785;-69
2021/09/14 14:31:17;;;;;;;;;0.00;0.00;;;;;;;;2773566;51;8778;-67
2021/09/14 14:33:43;;;;;;;;;0.00;0.00;;;;;;;;2773700;51;8771;-69
2021/09/14 14:36:08;;;;;;;;;0.00;0.00;;;;;;;;2773651;51;8884;-68
2021/09/14 14:38:40;;;;;;;;;0.33;0.33;;;;;;;;2773306;51;8879;-68
2021/09/14 14:41:05;;;;;;;;;0.50;0.50;;;;;;;;2776255;51;9652;-70
2021/09/14 14:43:31;;;;;;;;;0.75;0.75;;;;;;;;2779488;51;8844;-68
2021/09/14 14:45:57;;;;;;;;;0.67;0.67;;;;;;;;2779537;51;8994;-69
2021/09/14 14:48:22;;;;;;;;;0.33;0.33;;;;;;;;2779490;51;8762;-69
2021/09/14 14:50:48;;;;;;;;;1.00;1.00;;;;;;;;2779417;51;8815;-69
2021/09/14 14:53:15;;;;;;;;;2.67;1.67;;;;;;;;2779921;51;8813;-69
2021/09/14 14:55:41;;;;;;;;;0.50;0.50;;;;;;;;2780021;51;9400;-68
2021/09/14 14:58:06;;;;;;;;;1.33;0.67;;;;;;;;2779596;51;8767;-68
2021/09/14 15:00:32;;;;;;;;;3.67;1.67;;;;;;;;2779738;51;8775;-66
2021/09/14 15:02:57;;;;;;;;;1.33;1.33;;;;;;;;2779683;51;8762;-69
2021/09/14 15:05:23;;;;;;;;;1.67;1.67;;;;;;;;2779318;51;8798;-68
2021/09/14 15:07:49;;;;;;;;;1.33;1.33;;;;;;;;2779794;51;8804;-67
2021/09/14 15:10:15;;;;;;;;;2.00;1.25;;;;;;;;2779400;51;8763;-68
2021/09/14 15:12:41;;;;;;;;;2.00;2.00;;;;;;;;2779348;51;8848;-66
2021/09/14 15:15:07;;;;;;;;;1.67;1.67;;;;;;;;2779646;51;11483;-70
2021/09/14 15:17:33;;;;;;;;;3.00;2.00;;;;;;;;2779843;51;9320;-70
2021/09/14 15:19:59;;;;;;;;;3.00;3.00;;;;;;;;2779740;51;8758;-68
2021/09/14 15:22:25;;;;;;;;;1.33;1.33;;;;;;;;2779468;51;8791;-68
2021/09/14 15:24:51;;;;;;;;;1.00;1.00;;;;;;;;2773172;51;8781;-70
2021/09/14 15:27:16;;;;;;;;;3.00;3.00;;;;;;;;2773288;51;11417;-70
2021/09/14 15:29:42;;;;;;;;;0.33;0.33;;;;;;;;2773642;51;8781;-70
2021/09/14 15:32:08;;;;;;;;;2.33;2.33;;;;;;;;2773182;51;8760;-69
2021/09/14 15:34:34;;;;;;;;;0.00;0.00;;;;;;;;2773331;51;8757;-69
2021/09/14 15:37:00;;;;;;;;;2.00;2.00;;;;;;;;2773288;51;8842;-70
2021/09/14 15:39:25;;;;;;;;;1.33;1.33;;;;;;;;2773293;51;8773;-67
2021/09/14 15:41:51;;;;;;;;;2.00;2.00;;;;;;;;2773711;51;8761;-65
2021/09/14 15:44:17;;;;;;;;;2.00;2.00;;;;;;;;2773678;51;8788;-70
2021/09/14 15:46:44;;;;;;;;;3.20;2.00;;;;;;;;2773369;51;8816;-69
2021/09/14 15:49:09;;;;;;;;;2.20;2.20;;;;;;;;2773581;51;8773;-68
2021/09/14 15:51:37;;;;;;;;;3.50;2.25;;;;;;;;2773516;51;8776;-71